createdAt,value
2023-07-25T00:00:35.497Z,0.70
2023-07-25T00:03:02.441Z,0.70
2023-07-25T00:05:36.273Z,0.57
2023-07-25T00:08:09.210Z,0.60
2023-07-25T00:10:36.023Z,0.68
2023-07-25T00:13:02.885Z,0.63
2023-07-25T00:15:30.168Z,0.70
2023-07-25T00:18:00.199Z,0.70
2023-07-25T00:20:27.237Z,0.68
2023-07-25T00:23:01.434Z,0.60
2023-07-25T00:25:28.315Z,0.73
2023-07-25T00:27:55.169Z,0.90
2023-07-25T00:30:22.638Z,0.70
2023-07-25T00:32:49.576Z,1.00
2023-07-25T00:35:16.565Z,1.35
2023-07-25T00:37:43.426Z,1.40
2023-07-25T00:40:10.549Z,1.20
2023-07-25T00:42:41.072Z,0.90
2023-07-25T00:45:08.758Z,1.10
2023-07-25T00:47:35.663Z,1.10
2023-07-25T00:50:02.816Z,1.02
2023-07-25T00:52:29.654Z,0.80
2023-07-25T00:54:56.577Z,0.80
2023-07-25T00:57:23.531Z,0.70
2023-07-25T00:59:50.355Z,0.80
2023-07-25T01:02:17.761Z,0.60
2023-07-25T01:04:45.129Z,0.70
2023-07-25T01:07:14.203Z,0.70
2023-07-25T01:09:42.933Z,0.50
2023-07-25T01:12:11.269Z,0.65
2023-07-25T01:14:39.771Z,0.60
2023-07-25T01:17:19.290Z,0.70
2023-07-25T01:19:47.875Z,0.70
2023-07-25T01:22:15.261Z,0.68
2023-07-25T01:24:48.072Z,0.75
2023-07-25T01:27:15.807Z,0.60
2023-07-25T01:29:42.772Z,0.70
2023-07-25T01:32:10.522Z,0.60
2023-07-25T01:34:37.676Z,0.60
2023-07-25T01:37:06.290Z,0.70
2023-07-25T01:39:33.105Z,0.65
2023-07-25T01:41:59.992Z,0.65
2023-07-25T01:44:26.776Z,0.70
2023-07-25T01:46:58.164Z,0.77
2023-07-25T01:49:25.117Z,0.65
2023-07-25T01:51:52.994Z,0.70
2023-07-25T01:54:20.078Z,0.68
2023-07-25T01:56:50.294Z,0.70
2023-07-25T01:59:19.044Z,0.68
2023-07-25T02:01:46.008Z,0.73
2023-07-25T02:04:13.548Z,0.60
2023-07-25T02:06:40.576Z,0.70
2023-07-25T02:09:07.525Z,0.90
2023-07-25T02:11:34.447Z,0.77
2023-07-25T02:14:01.584Z,0.90
2023-07-25T02:16:28.455Z,0.70
2023-07-25T02:18:55.388Z,0.70
2023-07-25T02:21:22.351Z,0.80
2023-07-25T02:23:49.173Z,0.85
2023-07-25T02:26:16.023Z,0.65
2023-07-25T02:28:42.860Z,0.70
2023-07-25T02:31:09.791Z,0.60
2023-07-25T02:33:36.698Z,0.90
2023-07-25T02:36:03.689Z,0.68
2023-07-25T02:38:30.566Z,0.80
2023-07-25T02:40:57.431Z,1.10
2023-07-25T02:43:24.382Z,0.90
2023-07-25T02:45:52.287Z,0.90
2023-07-25T02:48:20.503Z,0.88
2023-07-25T02:50:47.533Z,0.63
2023-07-25T02:53:14.612Z,0.88
2023-07-25T02:55:41.546Z,0.80
2023-07-25T02:58:08.543Z,0.85
2023-07-25T03:00:36.122Z,0.77
2023-07-25T03:03:04.627Z,1.00
2023-07-25T03:05:31.465Z,0.70
2023-07-25T03:07:58.708Z,0.80
2023-07-25T03:10:25.739Z,0.80
2023-07-25T03:12:53.868Z,0.80
2023-07-25T03:15:21.429Z,0.63
2023-07-25T03:17:48.418Z,0.68
2023-07-25T03:20:15.445Z,0.60
2023-07-25T03:22:42.444Z,0.68
2023-07-25T03:25:09.776Z,1.00
2023-07-25T03:27:37.242Z,1.05
2023-07-25T03:30:05.280Z,0.90
2023-07-25T03:32:35.851Z,0.90
2023-07-25T03:35:03.544Z,0.80
2023-07-25T03:37:30.328Z,0.80
2023-07-25T03:39:57.289Z,0.82
2023-07-25T03:42:24.294Z,0.70
2023-07-25T03:44:52.685Z,0.70
2023-07-25T03:47:22.289Z,0.73
2023-07-25T03:49:50.177Z,0.70
2023-07-25T03:52:17.074Z,0.65
2023-07-25T03:54:43.866Z,0.60
2023-07-25T03:57:10.827Z,0.75
2023-07-25T03:59:37.700Z,0.60
2023-07-25T04:02:04.854Z,0.77
2023-07-25T04:04:31.845Z,0.70
2023-07-25T04:06:58.742Z,0.60
2023-07-25T04:09:25.521Z,0.80
2023-07-25T04:11:52.387Z,1.50
2023-07-25T04:14:19.217Z,1.20
2023-07-25T04:16:45.974Z,1.00
2023-07-25T04:19:12.952Z,1.00
2023-07-25T04:21:39.880Z,1.10
2023-07-25T04:24:06.869Z,0.90
2023-07-25T04:26:33.861Z,0.75
2023-07-25T04:29:00.629Z,0.60
2023-07-25T04:31:27.500Z,0.80
2023-07-25T04:33:54.363Z,0.80
2023-07-25T04:36:21.270Z,0.77
2023-07-25T04:38:48.239Z,0.60
2023-07-25T04:41:15.008Z,0.80
2023-07-25T04:43:41.781Z,1.10
2023-07-25T04:46:08.690Z,0.90
2023-07-25T04:48:35.533Z,0.90
2023-07-25T04:51:02.331Z,0.80
2023-07-25T04:53:29.121Z,0.90
2023-07-25T04:55:55.928Z,0.70
2023-07-25T04:58:22.773Z,0.60
2023-07-25T05:00:49.540Z,0.68
2023-07-25T05:03:16.492Z,0.90
2023-07-25T05:05:43.369Z,1.10
2023-07-25T05:08:10.198Z,1.10
2023-07-25T05:10:37.085Z,0.80
2023-07-25T05:13:03.891Z,0.80
2023-07-25T05:15:30.741Z,0.88
2023-07-25T05:17:57.539Z,0.98
2023-07-25T05:20:24.437Z,1.00
2023-07-25T05:22:51.809Z,1.08
2023-07-25T05:25:18.591Z,1.00
2023-07-25T05:27:45.454Z,1.02
2023-07-25T05:30:12.423Z,1.05
2023-07-25T05:32:40.484Z,0.88
2023-07-25T05:35:07.589Z,0.90
2023-07-25T05:37:39.195Z,0.90
2023-07-25T05:40:07.089Z,0.90
2023-07-25T05:42:34.121Z,0.70
2023-07-25T05:45:01.447Z,0.90
2023-07-25T05:47:29.117Z,0.90
2023-07-25T05:49:57.630Z,0.80
2023-07-25T05:52:24.469Z,0.88
2023-07-25T05:54:52.426Z,0.90
2023-07-25T05:57:19.498Z,0.93
2023-07-25T05:59:46.592Z,0.90
2023-07-25T06:02:13.597Z,1.00
2023-07-25T06:04:40.443Z,0.93
2023-07-25T06:07:07.589Z,1.17
2023-07-25T06:09:34.533Z,0.90
2023-07-25T06:12:01.535Z,1.23
2023-07-25T06:14:28.494Z,1.00
2023-07-25T06:16:55.494Z,1.00
2023-07-25T06:19:22.722Z,1.17
2023-07-25T06:21:49.880Z,0.80
2023-07-25T06:24:17.242Z,1.00
2023-07-25T06:26:44.282Z,1.05
2023-07-25T06:29:11.083Z,0.70
2023-07-25T06:31:38.230Z,0.88
2023-07-25T06:34:05.924Z,1.10
2023-07-25T06:36:33.225Z,1.15
2023-07-25T06:39:00.158Z,0.90
2023-07-25T06:41:27.583Z,1.00
2023-07-25T06:43:59.267Z,0.80
2023-07-25T06:46:26.463Z,0.90
2023-07-25T06:48:53.618Z,0.82
2023-07-25T06:51:21.553Z,0.90
2023-07-25T06:53:48.636Z,0.80
2023-07-25T06:56:15.696Z,0.85
2023-07-25T06:58:42.681Z,0.85
2023-07-25T07:01:09.688Z,0.90
2023-07-25T07:03:36.602Z,1.00
2023-07-25T07:06:03.585Z,1.02
2023-07-25T07:08:30.520Z,1.00
2023-07-25T07:10:57.474Z,0.95
2023-07-25T07:13:24.624Z,1.00
2023-07-25T07:15:51.552Z,1.00
2023-07-25T07:18:18.913Z,1.00
2023-07-25T07:20:49.766Z,0.93
2023-07-25T07:23:17.558Z,0.93
2023-07-25T07:25:45.675Z,1.30
2023-07-25T07:28:13.929Z,1.13
2023-07-25T07:30:40.923Z,1.10
2023-07-25T07:33:07.880Z,1.00
2023-07-25T07:35:34.805Z,0.85
2023-07-25T07:38:01.767Z,1.10
2023-07-25T07:40:29.717Z,0.98
2023-07-25T07:42:56.633Z,0.90
2023-07-25T07:45:24.994Z,0.90
2023-07-25T07:47:52.827Z,0.80
2023-07-25T07:50:20.195Z,0.77
2023-07-25T07:52:47.660Z,1.00
2023-07-25T07:55:15.093Z,0.88
2023-07-25T07:57:43.833Z,0.90
2023-07-25T08:00:13.001Z,0.90
2023-07-25T08:02:40.179Z,0.80
2023-07-25T08:05:07.440Z,0.70
2023-07-25T08:07:34.400Z,1.10
2023-07-25T08:10:01.675Z,0.90
2023-07-25T08:12:28.651Z,1.30
2023-07-25T08:14:55.494Z,1.30
2023-07-25T08:17:22.444Z,1.00
2023-07-25T08:19:49.974Z,1.13
2023-07-25T08:22:17.059Z,1.05
2023-07-25T08:24:44.095Z,1.10
2023-07-25T08:27:11.119Z,1.00
2023-07-25T08:29:42.666Z,0.90
2023-07-25T08:32:10.839Z,0.90
2023-07-25T08:34:38.921Z,1.00
2023-07-25T08:37:07.258Z,0.90
2023-07-25T08:39:35.042Z,0.85
2023-07-25T08:42:06.109Z,0.80
2023-07-25T08:44:35.430Z,0.80
2023-07-25T08:47:06.994Z,0.88
2023-07-25T08:49:37.048Z,1.10
2023-07-25T08:52:05.433Z,1.08
2023-07-25T08:54:37.957Z,1.30
2023-07-25T08:57:05.873Z,0.90
2023-07-25T08:59:33.246Z,1.05
2023-07-25T09:02:01.552Z,0.80
2023-07-25T09:04:29.628Z,0.90
2023-07-25T09:06:56.566Z,0.80
2023-07-25T09:09:24.529Z,0.82
2023-07-25T09:11:52.046Z,0.98
2023-07-25T09:14:19.053Z,0.70
2023-07-25T09:16:45.988Z,1.10
2023-07-25T09:19:13.877Z,1.20
2023-07-25T09:21:51.527Z,1.10
2023-07-25T09:24:18.647Z,1.10
2023-07-25T09:26:52.654Z,0.90
2023-07-25T09:29:21.819Z,0.90
2023-07-25T09:31:48.825Z,0.80
2023-07-25T09:34:18.561Z,0.80
2023-07-25T09:36:47.739Z,0.90
2023-07-25T09:39:15.176Z,0.70
2023-07-25T09:41:42.107Z,0.82
2023-07-25T09:44:10.003Z,0.90
2023-07-25T09:46:36.868Z,1.00
2023-07-25T09:49:03.798Z,1.08
2023-07-25T09:51:32.535Z,1.00
2023-07-25T09:53:59.590Z,0.82
2023-07-25T09:56:27.661Z,0.60
2023-07-25T10:01:27.425Z,0.68
2023-07-25T10:03:54.999Z,0.77
2023-07-25T10:06:22.483Z,0.98
2023-07-25T10:08:49.977Z,1.00
2023-07-25T10:11:17.562Z,1.10
2023-07-25T10:13:45.011Z,1.00
2023-07-25T10:16:15.694Z,1.10
2023-07-25T10:18:42.825Z,1.13
2023-07-25T10:21:12.415Z,1.10
2023-07-25T10:23:39.491Z,1.50
2023-07-25T10:26:14.647Z,1.25
2023-07-25T10:28:42.111Z,1.33
2023-07-25T10:31:09.945Z,1.00
2023-07-25T10:33:40.106Z,1.10
2023-07-25T10:36:21.531Z,0.95
2023-07-25T10:38:49.837Z,1.10
2023-07-25T10:41:17.655Z,1.00
2023-07-25T10:43:47.720Z,1.02
2023-07-25T10:46:23.238Z,0.95
2023-07-25T10:48:59.609Z,1.20
2023-07-25T10:51:49.699Z,1.27
2023-07-25T10:54:18.481Z,1.20
2023-07-25T10:57:10.325Z,1.00
2023-07-25T11:00:05.385Z,0.80
2023-07-25T11:05:14.405Z,1.10
2023-07-25T11:07:48.234Z,1.30
2023-07-25T11:10:27.977Z,1.00
2023-07-25T11:12:59.835Z,0.95
2023-07-25T11:17:57.821Z,1.10
2023-07-25T11:20:24.886Z,1.08
2023-07-25T11:22:53.344Z,1.00
2023-07-25T11:25:20.922Z,0.90
2023-07-25T11:27:48.809Z,1.05
2023-07-25T11:30:19.833Z,0.88
2023-07-25T11:32:48.779Z,1.00
2023-07-25T11:35:19.062Z,0.90
2023-07-25T11:37:47.388Z,0.80
2023-07-25T11:40:20.970Z,0.60
2023-07-25T11:42:50.134Z,0.80
2023-07-25T11:45:18.222Z,0.60
2023-07-25T11:47:48.373Z,0.70
2023-07-25T11:50:24.451Z,0.80
2023-07-25T11:52:54.573Z,0.70
2023-07-25T11:55:21.549Z,0.70
2023-07-25T11:57:48.520Z,0.77
2023-07-25T12:00:17.310Z,0.60
2023-07-25T12:02:44.679Z,0.70
2023-07-25T12:05:28.249Z,0.80
2023-07-25T12:08:03.618Z,0.90
2023-07-25T12:10:32.485Z,0.70
2023-07-25T12:13:00.600Z,0.88
2023-07-25T12:15:50.922Z,0.85
2023-07-25T12:18:30.560Z,0.80
2023-07-25T12:21:01.403Z,0.70
2023-07-25T12:23:32.203Z,0.50
2023-07-25T12:26:02.063Z,0.68
2023-07-25T12:28:45.981Z,0.60
2023-07-25T12:31:14.135Z,0.70
2023-07-25T12:33:42.747Z,0.70
2023-07-25T12:36:09.528Z,0.60
2023-07-25T12:38:36.519Z,0.80
2023-07-25T12:41:04.166Z,0.60
2023-07-25T12:43:31.399Z,0.80
2023-07-25T12:45:58.486Z,0.60
2023-07-25T12:48:25.348Z,0.80
2023-07-25T12:50:52.379Z,0.90
2023-07-25T12:53:19.285Z,1.00
2023-07-25T12:55:46.226Z,0.90
2023-07-25T12:58:13.093Z,1.23
2023-07-25T13:00:42.154Z,0.98
2023-07-25T13:03:10.090Z,0.98
2023-07-25T13:05:37.149Z,0.77
2023-07-25T13:08:04.290Z,0.98
2023-07-25T13:10:31.351Z,0.70
2023-07-25T13:12:58.165Z,1.20
2023-07-25T13:15:25.055Z,0.88
2023-07-25T13:17:51.991Z,0.88
2023-07-25T13:20:19.020Z,0.73
2023-07-25T13:22:45.928Z,0.70
2023-07-25T13:25:13.136Z,0.80
2023-07-25T13:27:40.320Z,0.90
2023-07-25T13:30:08.359Z,1.30
2023-07-25T13:32:35.442Z,1.27
2023-07-25T13:35:02.366Z,1.67
2023-07-25T13:37:29.258Z,1.05
2023-07-25T13:39:56.027Z,0.50
2023-07-25T13:42:23.887Z,0.60
2023-07-25T13:44:50.817Z,0.52
2023-07-25T13:47:17.880Z,0.50
2023-07-25T13:49:44.968Z,0.50
2023-07-25T13:52:11.931Z,0.30
2023-07-25T13:54:38.995Z,0.70
2023-07-25T13:57:06.230Z,0.55
2023-07-25T13:59:33.042Z,0.40
2023-07-25T14:02:01.522Z,0.40
2023-07-25T14:04:29.800Z,0.20
2023-07-25T14:06:56.771Z,0.40
2023-07-25T14:09:23.699Z,0.30
2023-07-25T14:11:50.964Z,0.30
2023-07-25T14:14:18.082Z,0.35
2023-07-25T14:16:44.999Z,0.40
2023-07-25T14:19:11.931Z,0.30
2023-07-25T14:21:38.754Z,0.52
2023-07-25T14:24:06.757Z,0.30
2023-07-25T14:26:36.692Z,0.30
2023-07-25T14:29:04.618Z,0.40
2023-07-25T14:31:31.731Z,0.38
2023-07-25T14:33:59.615Z,0.30
2023-07-25T14:36:26.541Z,0.40
2023-07-25T14:38:53.453Z,0.22
2023-07-25T14:41:20.439Z,0.20
2023-07-25T14:43:47.355Z,0.30
2023-07-25T14:46:14.315Z,0.10
2023-07-25T14:48:41.164Z,0.30
2023-07-25T14:51:08.149Z,0.38
2023-07-25T14:53:35.078Z,0.20
2023-07-25T14:56:01.888Z,0.10
2023-07-25T14:58:29.140Z,0.20
2023-07-25T15:00:56.500Z,0.15
2023-07-25T15:03:23.787Z,0.10
2023-07-25T15:05:51.954Z,0.20
2023-07-25T15:08:18.832Z,0.28
2023-07-25T15:10:45.904Z,0.30
2023-07-25T15:13:12.884Z,0.30
2023-07-25T15:15:39.740Z,0.50
2023-07-25T15:18:08.770Z,0.45
2023-07-25T15:20:35.932Z,0.40
2023-07-25T15:23:02.907Z,0.50
2023-07-25T15:25:29.670Z,0.40
2023-07-25T15:27:56.463Z,0.50
2023-07-25T15:30:23.369Z,0.43
2023-07-25T15:32:50.353Z,0.50
2023-07-25T15:35:17.491Z,0.50
2023-07-25T15:37:44.306Z,0.52
2023-07-25T15:40:11.542Z,0.50
2023-07-25T15:42:39.309Z,0.40
2023-07-25T15:45:06.579Z,0.50
2023-07-25T15:47:33.443Z,0.50
2023-07-25T15:50:00.340Z,0.45
2023-07-25T15:52:27.298Z,0.50
2023-07-25T15:54:54.062Z,0.47
2023-07-25T15:57:20.906Z,0.60
2023-07-25T15:59:47.778Z,0.68
2023-07-25T16:02:14.627Z,0.60
2023-07-25T16:04:41.413Z,0.90
2023-07-25T16:07:08.243Z,0.50
2023-07-25T16:09:35.064Z,0.80
2023-07-25T16:12:02.217Z,0.90
2023-07-25T16:14:29.118Z,0.75
2023-07-25T16:16:56.011Z,0.63
2023-07-25T16:19:23.014Z,0.80
2023-07-25T16:21:49.843Z,1.10
2023-07-25T16:24:16.931Z,0.80
2023-07-25T16:26:43.687Z,0.70
2023-07-25T16:29:10.563Z,0.90
2023-07-25T16:31:37.430Z,0.90
2023-07-25T16:34:05.292Z,0.60
2023-07-25T16:36:32.530Z,0.70
2023-07-25T16:38:59.391Z,0.77
2023-07-25T16:41:26.251Z,0.60
2023-07-25T16:43:53.220Z,0.60
2023-07-25T16:46:20.294Z,0.93
2023-07-25T16:48:47.297Z,0.90
2023-07-25T16:51:14.312Z,0.80
2023-07-25T16:53:41.115Z,0.70
2023-07-25T16:56:08.166Z,0.60
2023-07-25T16:58:35.823Z,0.68
2023-07-25T17:01:04.463Z,0.60
2023-07-25T17:03:31.567Z,0.80
2023-07-25T17:05:59.124Z,0.68
2023-07-25T17:08:26.868Z,0.70
2023-07-25T17:10:53.770Z,0.73
2023-07-25T17:13:20.930Z,0.60
2023-07-25T17:15:48.023Z,0.77
2023-07-25T17:18:14.848Z,0.63
2023-07-25T17:20:41.770Z,0.60
2023-07-25T17:23:08.805Z,0.70
2023-07-25T17:25:37.658Z,0.50
2023-07-25T17:28:04.694Z,0.57
2023-07-25T17:30:31.501Z,0.60
2023-07-25T17:33:01.324Z,0.57
2023-07-25T17:35:37.377Z,0.63
2023-07-25T17:38:05.250Z,0.70
2023-07-25T17:40:32.608Z,0.63
2023-07-25T17:42:59.488Z,0.60
2023-07-25T17:45:26.358Z,0.60
2023-07-25T17:47:53.322Z,0.88
2023-07-25T17:50:20.536Z,0.65
2023-07-25T17:52:47.533Z,0.55
2023-07-25T17:55:14.527Z,0.60
2023-07-25T17:57:42.165Z,0.77
2023-07-25T18:00:10.231Z,0.70
2023-07-25T18:02:39.945Z,0.70
2023-07-25T18:05:07.389Z,0.60
2023-07-25T18:07:34.195Z,0.60
2023-07-25T18:10:01.378Z,0.65
2023-07-25T18:12:28.303Z,0.70
2023-07-25T18:14:55.232Z,0.60
2023-07-25T18:17:22.776Z,0.50
2023-07-25T18:19:49.783Z,0.70
2023-07-25T18:22:16.603Z,0.60
2023-07-25T18:24:43.503Z,0.63
2023-07-25T18:27:10.466Z,0.55
2023-07-25T18:29:37.267Z,0.70
2023-07-25T18:32:04.345Z,0.65
2023-07-25T18:34:31.118Z,0.60
2023-07-25T18:36:57.981Z,0.60
2023-07-25T18:39:24.824Z,0.70
2023-07-25T18:41:51.709Z,0.55
2023-07-25T18:44:18.544Z,0.57
2023-07-25T18:46:45.506Z,0.70
2023-07-25T18:49:12.444Z,0.70
2023-07-25T18:51:39.257Z,0.60
2023-07-25T18:54:06.331Z,0.60
2023-07-25T18:56:34.137Z,0.60
2023-07-25T18:59:02.555Z,0.60
2023-07-25T19:01:29.556Z,0.80
2023-07-25T19:03:58.442Z,0.70
2023-07-25T19:06:25.669Z,0.80
2023-07-25T19:08:53.468Z,0.70
2023-07-25T19:11:20.447Z,0.90
2023-07-25T19:13:47.445Z,0.80
2023-07-25T19:16:14.389Z,1.02
2023-07-25T19:18:42.257Z,1.00
2023-07-25T19:21:09.102Z,0.82
2023-07-25T19:23:36.022Z,0.55
2023-07-25T19:26:03.333Z,0.70
2023-07-25T19:28:30.542Z,0.70
2023-07-25T19:30:58.746Z,0.75
2023-07-25T19:33:31.194Z,0.52
2023-07-25T19:36:00.405Z,0.70
2023-07-25T19:38:28.626Z,0.60
2023-07-25T19:40:55.821Z,0.80
2023-07-25T19:43:23.073Z,0.77
2023-07-25T19:45:50.069Z,0.60
2023-07-25T19:48:17.974Z,0.60
2023-07-25T19:50:47.763Z,0.60
2023-07-25T19:53:16.666Z,0.60
2023-07-25T19:55:43.864Z,0.60
2023-07-25T19:58:10.843Z,0.70
2023-07-25T20:00:38.380Z,0.70
2023-07-25T20:03:05.829Z,0.73
2023-07-25T20:05:32.847Z,0.63
2023-07-25T20:07:59.722Z,0.80
2023-07-25T20:10:26.711Z,0.90
2023-07-25T20:12:53.757Z,0.60
2023-07-25T20:15:20.691Z,0.60
2023-07-25T20:17:48.336Z,0.60
2023-07-25T20:20:15.389Z,0.82
2023-07-25T20:22:42.410Z,0.60
2023-07-25T20:25:11.283Z,0.85
2023-07-25T20:27:38.573Z,0.80
2023-07-25T20:30:06.360Z,1.13
2023-07-25T20:32:33.530Z,0.93
2023-07-25T20:35:00.556Z,1.10
2023-07-25T20:37:28.996Z,1.00
2023-07-25T20:39:56.766Z,0.90
2023-07-25T20:42:23.936Z,1.00
2023-07-25T20:44:50.965Z,1.38
2023-07-25T20:47:17.779Z,1.10
2023-07-25T20:49:45.509Z,0.90
2023-07-25T20:52:12.309Z,0.70
2023-07-25T20:54:39.120Z,0.70
2023-07-25T20:57:06.439Z,0.80
2023-07-25T20:59:33.293Z,0.57
2023-07-25T21:02:00.168Z,1.02
2023-07-25T21:04:28.747Z,0.73
2023-07-25T21:06:56.304Z,0.70
2023-07-25T21:09:23.264Z,0.80
2023-07-25T21:11:50.032Z,0.85
2023-07-25T21:14:16.882Z,0.98
2023-07-25T21:16:43.749Z,1.02
2023-07-25T21:19:10.553Z,0.80
2023-07-25T21:21:37.397Z,0.80
2023-07-25T21:24:04.562Z,0.85
2023-07-25T21:26:31.617Z,0.70
2023-07-25T21:28:58.618Z,0.88
2023-07-25T21:31:25.789Z,0.98
2023-07-25T21:33:52.781Z,0.80
2023-07-25T21:36:19.731Z,0.63
2023-07-25T21:38:46.528Z,0.70
2023-07-25T21:41:13.411Z,0.70
2023-07-25T21:43:41.517Z,0.70
2023-07-25T21:46:08.659Z,0.60
2023-07-25T21:48:35.689Z,0.60
2023-07-25T21:51:02.638Z,0.60
2023-07-25T21:53:30.227Z,0.60
2023-07-25T21:55:58.582Z,0.50
2023-07-25T21:58:27.417Z,0.75
2023-07-25T22:00:58.843Z,0.80
2023-07-25T22:03:29.840Z,0.68
2023-07-25T22:05:58.205Z,0.60
2023-07-25T22:08:25.298Z,0.70
2023-07-25T22:10:54.164Z,0.77
2023-07-25T22:13:21.694Z,0.63
2023-07-25T22:15:48.620Z,0.80
2023-07-25T22:18:15.654Z,0.65
2023-07-25T22:20:51.474Z,0.70
2023-07-25T22:23:20.074Z,0.80
2023-07-25T22:25:47.183Z,0.88
2023-07-25T22:28:14.080Z,0.90
2023-07-25T22:30:40.928Z,0.82
2023-07-25T22:33:07.704Z,0.90
2023-07-25T22:35:35.571Z,0.90
2023-07-25T22:38:04.054Z,0.70
2023-07-25T22:40:31.416Z,0.75
2023-07-25T22:42:58.355Z,0.80
2023-07-25T22:45:26.867Z,0.90
2023-07-25T22:47:54.267Z,0.68
2023-07-25T22:50:21.287Z,0.73
2023-07-25T22:52:48.521Z,0.70
2023-07-25T22:55:18.589Z,0.80
2023-07-25T22:57:45.913Z,0.90
2023-07-25T23:00:13.353Z,0.98
2023-07-25T23:02:40.545Z,0.73
2023-07-25T23:05:07.957Z,0.80
2023-07-25T23:07:35.466Z,0.90
2023-07-25T23:10:02.979Z,1.00
2023-07-25T23:12:30.004Z,1.15
2023-07-25T23:14:56.936Z,0.93
2023-07-25T23:17:23.773Z,1.15
2023-07-25T23:19:50.698Z,1.20
2023-07-25T23:22:17.566Z,0.90
2023-07-25T23:24:44.447Z,0.70
2023-07-25T23:27:11.369Z,0.95
2023-07-25T23:29:38.303Z,0.70
2023-07-25T23:32:05.712Z,0.70
2023-07-25T23:34:55.052Z,0.60
2023-07-25T23:37:22.056Z,0.60
2023-07-25T23:39:49.236Z,0.80
2023-07-25T23:42:16.109Z,0.88
2023-07-25T23:44:43.138Z,0.90
2023-07-25T23:47:12.580Z,0.80
2023-07-25T23:49:39.809Z,0.85
2023-07-25T23:52:07.507Z,0.80
2023-07-25T23:54:34.616Z,0.77
2023-07-25T23:57:05.957Z,0.75
2023-07-25T23:59:33.147Z,0.70
